Time;durP1;ratioP1;P1;durP2;ratioP2;P2;SDS_P1;SDS_P2;PMS_P1;PMS_P2;Temp;Humidity;BMP_temperature;BMP_pressure;BME280_temperature;BME280_humidity;BME280_pressure;Samples;Min_cycle;Max_cycle;Signal;HPM_P1;HPM_P2
2023/04/21 00:00:28;;;;;;;;;;;9.60;99.90;;;;;;4976050;28;20104;-75
2023/04/21 00:02:55;;;;;;;;;;;9.50;99.90;;;;;;4998278;28;19931;-75
2023/04/21 00:05:23;;;;;;;;;;;9.50;99.90;;;;;;4983423;28;19912;-75
2023/04/21 00:07:48;;;;;;;;;;;9.40;99.90;;;;;;5000279;28;20891;-75
2023/04/21 00:10:17;;;;;;;;;;;9.40;99.90;;;;;;5000414;28;19920;-76
2023/04/21 00:12:44;;;;;;;;;;;9.40;99.90;;;;;;4985724;28;20267;-76
2023/04/21 00:15:09;;;;;;;;;;;9.30;99.90;;;;;;4979794;28;19916;-75
2023/04/21 00:17:38;;;;;;;;;;;9.30;99.90;;;;;;4999421;28;19905;-75
2023/04/21 00:20:05;;;;;;;;;;;9.30;99.90;;;;;;5005004;28;19905;-75
2023/04/21 00:22:37;;;;;;;;;;;9.20;99.90;;;;;;5004925;28;19910;-75
2023/04/21 00:25:02;;;;;;;;;;;9.20;99.90;;;;;;5004724;28;19975;-75
2023/04/21 00:27:29;;;;;;;;;;;9.30;99.90;;;;;;4980438;28;20680;-75
2023/04/21 00:29:55;;;;;;;;;;;9.30;99.90;;;;;;4988449;28;19912;-76
2023/04/21 00:32:23;;;;;;;;;;;9.20;99.90;;;;;;4997000;28;19909;-75
2023/04/21 00:34:49;;;;;;;;;;;9.20;99.90;;;;;;5003542;28;19917;-75
2023/04/21 00:37:15;;;;;;;;;;;9.20;99.90;;;;;;4996495;28;19913;-75
2023/04/21 00:39:46;;;;;;;;;;;9.20;99.90;;;;;;4986970;28;19913;-75
2023/04/21 00:42:14;;;;;;;;;;;9.20;99.90;;;;;;5004212;28;19929;-75
2023/04/21 00:44:40;;;;;;;;;;;9.10;99.90;;;;;;4982441;28;20269;-75
2023/04/21 00:47:06;;;;;;;;;;;9.10;99.90;;;;;;4998914;28;19909;-75
2023/04/21 00:49:31;;;;;;;;;;;9.10;99.90;;;;;;5002903;28;19916;-75
2023/04/21 00:52:00;;;;;;;;;;;9.20;99.90;;;;;;4999259;28;20503;-75
2023/04/21 00:54:26;;;;;;;;;;;9.20;99.90;;;;;;4985168;28;20374;-74
2023/04/21 00:56:57;;;;;;;;;;;9.20;99.90;;;;;;4987281;28;19929;-75
2023/04/21 00:59:24;;;;;;;;;;;9.20;99.90;;;;;;4985331;28;19906;-75
2023/04/21 01:01:51;;;;;;;;;;;9.30;99.90;;;;;;4985533;28;19905;-75
2023/04/21 01:04:17;;;;;;;;;;;9.20;99.90;;;;;;4995980;28;20503;-75
2023/04/21 01:06:44;;;;;;;;;;;9.30;99.90;;;;;;4997308;28;19912;-75
2023/04/21 01:09:11;;;;;;;;;;;9.20;99.90;;;;;;4996763;28;19909;-75
2023/04/21 01:11:56;;;;;;;;;;;9.20;99.90;;;;;;4999811;28;19909;-75
2023/04/21 01:14:29;;;;;;;;;;;9.10;99.90;;;;;;4998981;28;19959;-75
2023/04/21 01:16:56;;;;;;;;;;;9.10;99.90;;;;;;5000078;28;19905;-75
2023/04/21 01:19:27;;;;;;;;;;;9.20;99.90;;;;;;5000051;28;19913;-75
2023/04/21 01:21:56;;;;;;;;;;;9.20;99.90;;;;;;4979728;28;19933;-75
2023/04/21 01:24:23;;;;;;;;;;;9.20;99.90;;;;;;4970567;28;19905;-76
2023/04/21 01:26:50;;;;;;;;;;;9.30;99.90;;;;;;5000558;28;20011;-75
2023/04/21 01:29:17;;;;;;;;;;;9.40;99.90;;;;;;4996305;28;19943;-75
2023/04/21 01:31:46;;;;;;;;;;;9.40;99.90;;;;;;4986686;28;19964;-75
2023/04/21 01:34:23;;;;;;;;;;;9.50;99.90;;;;;;4977847;28;19944;-75
2023/04/21 01:36:50;;;;;;;;;;;9.60;99.90;;;;;;4999301;28;19925;-75
2023/04/21 01:39:16;;;;;;;;;;;9.70;99.90;;;;;;4999122;28;19913;-75
2023/04/21 01:41:42;;;;;;;;;;;9.70;99.90;;;;;;4979992;28;19959;-75
2023/04/21 01:44:10;;;;;;;;;;;9.70;99.90;;;;;;4998745;28;19912;-75
2023/04/21 01:46:37;;;;;;;;;;;9.70;99.90;;;;;;4986114;28;19960;-75
2023/04/21 01:49:02;;;;;;;;;;;9.80;99.90;;;;;;4984279;28;19905;-75
2023/04/21 01:51:30;;;;;;;;;;;9.80;99.90;;;;;;4997769;28;19909;-75
2023/04/21 01:53:55;;;;;;;;;;;9.90;99.90;;;;;;4984499;28;19920;-75
2023/04/21 01:56:23;;;;;;;;;;;9.80;99.90;;;;;;5004098;28;19909;-75
2023/04/21 01:58:48;;;;;;;;;;;9.80;99.90;;;;;;4990821;28;19921;-75
2023/04/21 02:01:14;;;;;;;;;;;9.80;99.90;;;;;;4980249;28;19909;-75
2023/04/21 02:03:40;;;;;;;;;;;9.70;99.90;;;;;;4998293;28;19916;-75
2023/04/21 02:06:06;;;;;;;;;;;9.60;99.90;;;;;;4993881;28;19940;-75
2023/04/21 02:08:31;;;;;;;;;;;9.50;99.90;;;;;;4987711;28;20550;-75
2023/04/21 02:11:00;;;;;;;;;;;9.40;99.90;;;;;;4977123;28;19920;-75
2023/04/21 02:13:26;;;;;;;;;;;9.50;99.90;;;;;;4991425;28;20054;-76
2023/04/21 02:15:53;;;;;;;;;;;9.50;99.90;;;;;;4977445;28;19996;-75
2023/04/21 02:18:19;;;;;;;;;;;9.60;99.90;;;;;;4998503;28;19913;-75
2023/04/21 02:20:44;;;;;;;;;;;9.60;99.90;;;;;;4978234;28;19909;-75
2023/04/21 02:23:13;;;;;;;;;;;9.60;99.90;;;;;;4981718;28;19960;-75
2023/04/21 02:25:40;;;;;;;;;;;9.60;99.90;;;;;;4997977;28;19905;-75
2023/04/21 02:28:08;;;;;;;;;;;9.60;99.90;;;;;;5000310;28;19905;-76
2023/04/21 02:30:39;;;;;;;;;;;9.60;99.90;;;;;;4980272;28;19968;-75
2023/04/21 02:33:05;;;;;;;;;;;9.60;99.90;;;;;;4976974;28;19917;-75
2023/04/21 02:35:32;;;;;;;;;;;9.50;99.90;;;;;;4976924;28;19968;-75
2023/04/21 02:38:06;;;;;;;;;;;9.50;99.90;;;;;;4998571;28;20473;-75
2023/04/21 02:40:31;;;;;;;;;;;9.40;99.90;;;;;;4996110;28;19911;-75
2023/04/21 02:42:57;;;;;;;;;;;9.30;99.90;;;;;;4995064;28;19909;-75
2023/04/21 02:45:26;;;;;;;;;;;9.20;99.90;;;;;;4980918;28;19956;-75
2023/04/21 02:47:52;;;;;;;;;;;9.10;99.90;;;;;;4981409;28;19916;-75
2023/04/21 02:50:18;;;;;;;;;;;9.10;99.90;;;;;;4998233;28;19913;-76
2023/04/21 02:52:49;;;;;;;;;;;9.10;99.90;;;;;;4990635;28;20138;-76
2023/04/21 02:55:23;;;;;;;;;;;9.00;99.90;;;;;;4994959;28;20076;-77
2023/04/21 02:57:49;;;;;;;;;;;9.00;99.90;;;;;;4990570;28;19914;-75
2023/04/21 03:00:16;;;;;;;;;;;8.90;99.90;;;;;;4981134;28;19940;-75
2023/04/21 03:02:41;;;;;;;;;;;8.90;99.90;;;;;;4985123;28;20344;-75
2023/04/21 03:05:08;;;;;;;;;;;8.80;99.90;;;;;;4979673;28;19909;-75
2023/04/21 03:07:35;;;;;;;;;;;8.80;99.90;;;;;;4996751;28;19913;-75
2023/04/21 03:10:02;;;;;;;;;;;8.80;99.90;;;;;;4998047;28;20057;-75
2023/04/21 03:12:31;;;;;;;;;;;8.70;99.90;;;;;;4981531;28;19913;-75
2023/04/21 03:14:57;;;;;;;;;;;8.60;99.90;;;;;;4992918;28;19909;-75
2023/04/21 03:17:27;;;;;;;;;;;8.60;99.90;;;;;;4993422;28;20363;-75
2023/04/21 03:19:55;;;;;;;;;;;8.60;99.90;;;;;;4997703;28;20030;-75
2023/04/21 03:22:31;;;;;;;;;;;8.60;99.90;;;;;;5005935;28;19913;-75
2023/04/21 03:24:58;;;;;;;;;;;8.50;99.90;;;;;;4987647;28;19932;-75
2023/04/21 03:27:32;;;;;;;;;;;8.50;99.90;;;;;;5010030;28;19905;-75
2023/04/21 03:29:58;;;;;;;;;;;8.40;99.90;;;;;;4986385;28;19909;-75
2023/04/21 03:32:42;;;;;;;;;;;8.40;99.90;;;;;;4985145;28;19993;-76
2023/04/21 03:35:08;;;;;;;;;;;8.30;99.90;;;;;;4985827;28;19905;-75
2023/04/21 03:37:35;;;;;;;;;;;8.30;99.90;;;;;;4988153;28;19924;-75
2023/04/21 03:40:07;;;;;;;;;;;8.20;99.90;;;;;;5006266;28;19906;-76
2023/04/21 03:42:39;;;;;;;;;;;8.20;99.90;;;;;;4985507;28;19909;-75
2023/04/21 03:45:07;;;;;;;;;;;8.20;99.90;;;;;;4987604;28;19993;-75
2023/04/21 03:47:34;;;;;;;;;;;8.20;99.90;;;;;;4986114;28;19909;-75
2023/04/21 03:50:06;;;;;;;;;;;8.20;99.90;;;;;;5004941;28;20360;-75
2023/04/21 03:52:36;;;;;;;;;;;8.20;99.90;;;;;;4983983;28;19914;-75
2023/04/21 03:55:10;;;;;;;;;;;8.20;99.90;;;;;;4999745;28;19916;-75
2023/04/21 03:57:40;;;;;;;;;;;8.20;99.90;;;;;;4985588;28;19996;-75
2023/04/21 04:00:09;;;;;;;;;;;8.20;99.90;;;;;;4984750;28;19913;-75
2023/04/21 04:02:35;;;;;;;;;;;8.20;99.90;;;;;;4983780;28;19919;-75
2023/04/21 04:05:02;;;;;;;;;;;8.20;99.90;;;;;;4987165;28;19910;-75
2023/04/21 04:07:28;;;;;;;;;;;8.20;99.90;;;;;;5004077;28;19906;-75
2023/04/21 04:09:54;;;;;;;;;;;8.20;99.90;;;;;;4986924;28;19956;-76
2023/04/21 04:12:24;;;;;;;;;;;8.30;99.90;;;;;;5000446;28;19917;-76
2023/04/21 04:14:49;;;;;;;;;;;8.30;99.90;;;;;;4979714;28;19906;-75
2023/04/21 04:17:17;;;;;;;;;;;8.30;99.90;;;;;;5005187;28;19914;-75
2023/04/21 04:19:45;;;;;;;;;;;8.30;99.90;;;;;;4983237;28;19909;-75
2023/04/21 04:22:13;;;;;;;;;;;8.30;99.90;;;;;;5003410;28;19910;-75
2023/04/21 04:24:40;;;;;;;;;;;8.40;99.90;;;;;;4985128;28;19911;-76
2023/04/21 04:27:05;;;;;;;;;;;8.40;99.90;;;;;;4999918;28;19906;-76
2023/04/21 04:29:37;;;;;;;;;;;8.60;99.90;;;;;;4979153;28;19924;-74
2023/04/21 04:32:05;;;;;;;;;;;8.70;99.90;;;;;;4982426;28;19916;-74
2023/04/21 04:34:31;;;;;;;;;;;8.90;99.90;;;;;;4995001;28;19931;-73
2023/04/21 04:36:57;;;;;;;;;;;9.40;99.90;;;;;;5000279;28;19996;-74
2023/04/21 04:39:24;;;;;;;;;;;10.20;99.90;;;;;;5002103;28;19999;-74
2023/04/21 04:41:51;;;;;;;;;;;11.20;99.90;;;;;;5000106;28;19913;-74
2023/04/21 04:44:17;;;;;;;;;;;11.80;99.90;;;;;;4982014;28;19913;-74
2023/04/21 04:46:44;;;;;;;;;;;12.50;99.90;;;;;;4995082;28;19925;-74
2023/04/21 04:49:10;;;;;;;;;;;13.10;99.90;;;;;;4979245;28;20406;-74
2023/04/21 04:51:37;;;;;;;;;;;13.40;99.90;;;;;;4982391;28;20000;-74
2023/04/21 04:54:04;;;;;;;;;;;13.80;99.90;;;;;;4995651;28;19912;-74
2023/04/21 04:56:33;;;;;;;;;;;14.30;99.90;;;;;;4986808;28;19912;-73
2023/04/21 04:59:00;;;;;;;;;;;14.80;99.90;;;;;;4983554;28;19909;-74
2023/04/21 05:01:29;;;;;;;;;;;15.70;99.90;;;;;;4999065;28;19918;-74
2023/04/21 05:03:56;;;;;;;;;;;16.70;99.90;;;;;;4995677;28;19913;-75
2023/04/21 05:06:25;;;;;;;;;;;17.40;99.90;;;;;;4982332;28;19909;-75
2023/04/21 05:08:51;;;;;;;;;;;16.60;99.90;;;;;;4996381;28;19909;-74
2023/04/21 05:11:20;;;;;;;;;;;15.80;99.90;;;;;;4994306;28;21383;-74
2023/04/21 05:13:45;;;;;;;;;;;15.20;99.90;;;;;;4977860;28;20852;-77
2023/04/21 05:16:12;;;;;;;;;;;14.60;99.90;;;;;;4981327;28;19905;-78
2023/04/21 05:18:40;;;;;;;;;;;14.10;99.90;;;;;;4982373;28;20047;-77
2023/04/21 05:21:06;;;;;;;;;;;13.90;99.90;;;;;;4995985;28;20382;-76
2023/04/21 05:23:32;;;;;;;;;;;13.90;99.90;;;;;;4982966;28;19956;-76
2023/04/21 05:25:57;;;;;;;;;;;14.10;99.90;;;;;;5002339;28;19913;-76
2023/04/21 05:28:28;;;;;;;;;;;14.40;99.90;;;;;;4995995;28;20228;-76
2023/04/21 05:30:56;;;;;;;;;;;14.80;99.90;;;;;;4996257;28;19909;-76
2023/04/21 05:33:22;;;;;;;;;;;15.80;99.90;;;;;;4995866;28;19905;-76
2023/04/21 05:35:54;;;;;;;;;;;16.70;99.90;;;;;;4998570;28;19996;-75
2023/04/21 05:38:19;;;;;;;;;;;17.90;99.90;;;;;;4981295;28;20606;-76
2023/04/21 05:40:51;;;;;;;;;;;18.80;99.60;;;;;;4978199;28;19924;-77
2023/04/21 05:43:16;;;;;;;;;;;19.70;97.00;;;;;;5000444;28;19920;-76
2023/04/21 05:45:46;;;;;;;;;;;21.20;93.60;;;;;;4986158;28;19906;-75
2023/04/21 05:48:12;;;;;;;;;;;22.00;91.00;;;;;;4990626;28;19905;-75
2023/04/21 05:50:37;;;;;;;;;;;21.90;87.10;;;;;;4998168;28;19966;-75
2023/04/21 05:53:04;;;;;;;;;;;22.40;85.90;;;;;;4998334;28;19920;-74
2023/04/21 05:55:29;;;;;;;;;;;23.10;82.20;;;;;;5005758;28;19920;-75
2023/04/21 05:57:55;;;;;;;;;;;24.00;77.60;;;;;;4985265;28;19905;-75
2023/04/21 06:00:20;;;;;;;;;;;23.90;75.40;;;;;;4999272;28;20305;-75
2023/04/21 06:02:46;;;;;;;;;;;24.50;74.00;;;;;;4999554;28;19920;-76
2023/04/21 06:05:13;;;;;;;;;;;24.20;71.70;;;;;;4974595;28;19906;-76
2023/04/21 06:07:40;;;;;;;;;;;24.50;71.30;;;;;;4994879;28;19948;-75
2023/04/21 06:10:06;;;;;;;;;;;24.60;68.60;;;;;;5000548;28;19948;-75
2023/04/21 06:12:34;;;;;;;;;;;24.40;69.70;;;;;;4994777;28;19944;-75
2023/04/21 06:15:02;;;;;;;;;;;24.60;68.80;;;;;;4980748;28;19905;-76
2023/04/21 06:17:35;;;;;;;;;;;24.30;68.60;;;;;;5003049;28;19912;-75
2023/04/21 06:20:01;;;;;;;;;;;24.50;69.20;;;;;;4981285;28;19905;-74
2023/04/21 06:22:27;;;;;;;;;;;25.30;68.00;;;;;;4998325;28;19932;-75
2023/04/21 06:24:56;;;;;;;;;;;25.90;66.10;;;;;;5001970;28;20362;-76
2023/04/21 06:27:23;;;;;;;;;;;26.90;63.20;;;;;;4995557;28;19965;-76
2023/04/21 06:29:53;;;;;;;;;;;27.00;61.70;;;;;;4980479;28;19921;-76
2023/04/21 06:32:20;;;;;;;;;;;26.80;61.80;;;;;;4998718;28;20433;-76
2023/04/21 06:34:45;;;;;;;;;;;27.50;60.80;;;;;;4979884;28;21426;-77
2023/04/21 06:37:11;;;;;;;;;;;27.60;59.70;;;;;;4985340;28;19925;-76
2023/04/21 06:39:36;;;;;;;;;;;25.90;60.60;;;;;;4983780;28;20256;-74
2023/04/21 06:42:03;;;;;;;;;;;26.60;61.60;;;;;;4994232;28;19927;-73
2023/04/21 06:44:31;;;;;;;;;;;27.20;60.70;;;;;;4994390;28;19914;-73
2023/04/21 06:46:56;;;;;;;;;;;28.40;58.40;;;;;;4997681;28;19949;-74
2023/04/21 06:49:22;;;;;;;;;;;28.50;57.40;;;;;;4978937;28;19955;-75
2023/04/21 06:51:47;;;;;;;;;;;28.00;57.00;;;;;;4996170;28;19925;-73
2023/04/21 06:54:13;;;;;;;;;;;29.00;56.50;;;;;;4983952;28;19909;-73
2023/04/21 06:56:40;;;;;;;;;;;30.50;54.10;;;;;;5000790;28;20486;-73
2023/04/21 06:59:06;;;;;;;;;;;30.10;52.40;;;;;;5000346;28;19905;-73
2023/04/21 07:01:32;;;;;;;;;;;30.40;53.10;;;;;;5003270;28;19905;-72
2023/04/21 07:03:57;;;;;;;;;;;30.60;51.80;;;;;;4990798;28;20374;-72
2023/04/21 07:06:23;;;;;;;;;;;32.40;50.40;;;;;;4998591;28;19951;-72
2023/04/21 07:08:48;;;;;;;;;;;32.60;49.30;;;;;;4995072;28;19917;-72
2023/04/21 07:11:14;;;;;;;;;;;30.60;48.30;;;;;;4999460;28;19983;-72
2023/04/21 07:13:39;;;;;;;;;;;30.50;50.20;;;;;;4994578;28;19914;-72
2023/04/21 07:16:07;;;;;;;;;;;28.60;50.50;;;;;;5007049;28;19917;-72
2023/04/21 07:18:33;;;;;;;;;;;29.00;51.40;;;;;;4982827;28;19948;-72
2023/04/21 07:20:59;;;;;;;;;;;28.70;52.30;;;;;;5000365;28;19963;-74
2023/04/21 07:23:25;;;;;;;;;;;26.60;53.00;;;;;;4978424;28;19920;-71
2023/04/21 07:25:50;;;;;;;;;;;26.80;53.30;;;;;;5000193;28;19910;-72
2023/04/21 07:28:17;;;;;;;;;;;26.70;54.40;;;;;;4989935;28;20530;-71
2023/04/21 07:30:42;;;;;;;;;;;27.50;53.00;;;;;;4999365;28;19916;-72
2023/04/21 07:33:09;;;;;;;;;;;28.80;51.50;;;;;;4995394;28;19906;-73
2023/04/21 07:35:34;;;;;;;;;;;29.50;50.80;;;;;;4998730;28;19913;-73
2023/04/21 07:38:00;;;;;;;;;;;30.60;49.30;;;;;;4996083;28;19914;-70
2023/04/21 07:40:26;;;;;;;;;;;30.10;48.00;;;;;;4996772;28;19905;-72
2023/04/21 07:42:51;;;;;;;;;;;30.90;48.80;;;;;;5000715;28;20256;-73
2023/04/21 07:45:17;;;;;;;;;;;31.40;47.60;;;;;;4998312;28;20010;-71
2023/04/21 07:47:42;;;;;;;;;;;31.50;47.60;;;;;;4996635;28;19912;-71
2023/04/21 07:50:08;;;;;;;;;;;30.50;47.80;;;;;;4995308;28;19910;-71
2023/04/21 07:52:33;;;;;;;;;;;30.70;48.00;;;;;;4996414;28;19913;-72
2023/04/21 07:55:00;;;;;;;;;;;30.00;47.80;;;;;;4986959;28;20232;-72
2023/04/21 07:57:25;;;;;;;;;;;29.70;49.00;;;;;;4997030;28;19951;-71
2023/04/21 07:59:51;;;;;;;;;;;30.00;47.50;;;;;;4995035;28;20321;-72
2023/04/21 08:02:17;;;;;;;;;;;30.20;47.60;;;;;;4999832;28;19920;-73
2023/04/21 08:04:42;;;;;;;;;;;29.50;48.40;;;;;;4979151;28;20370;-71
2023/04/21 08:07:08;;;;;;;;;;;30.40;48.00;;;;;;4993405;28;19912;-72
2023/04/21 08:09:34;;;;;;;;;;;29.70;48.20;;;;;;4998502;28;20241;-70
2023/04/21 08:12:01;;;;;;;;;;;29.30;48.90;;;;;;5004083;28;19916;-70
2023/04/21 08:14:27;;;;;;;;;;;28.40;49.40;;;;;;4998908;28;19916;-71
2023/04/21 08:16:52;;;;;;;;;;;26.50;50.70;;;;;;4981964;28;20608;-72
2023/04/21 08:19:18;;;;;;;;;;;26.90;52.40;;;;;;4999881;28;20008;-70
2023/04/21 08:21:43;;;;;;;;;;;28.30;49.90;;;;;;4985266;28;20625;-70
2023/04/21 08:24:09;;;;;;;;;;;28.90;49.00;;;;;;4997863;28;19948;-70
2023/04/21 08:26:35;;;;;;;;;;;29.00;49.00;;;;;;5001909;28;20639;-72
2023/04/21 08:29:00;;;;;;;;;;;28.00;48.70;;;;;;4998242;28;19905;-70
2023/04/21 08:31:26;;;;;;;;;;;28.20;50.10;;;;;;4994830;28;20032;-72
2023/04/21 08:33:52;;;;;;;;;;;29.60;47.50;;;;;;4992753;28;20347;-72
2023/04/21 08:36:19;;;;;;;;;;;30.20;46.70;;;;;;5000100;28;20355;-72
2023/04/21 08:38:44;;;;;;;;;;;29.80;47.30;;;;;;4997059;28;20719;-72
2023/04/21 08:41:10;;;;;;;;;;;29.80;47.10;;;;;;4991056;28;19940;-72
2023/04/21 08:43:35;;;;;;;;;;;30.00;47.40;;;;;;4978538;28;19913;-72
2023/04/21 08:46:04;;;;;;;;;;;29.10;46.80;;;;;;5002241;28;19906;-75
2023/04/21 08:48:30;;;;;;;;;;;27.90;48.60;;;;;;4998599;28;20359;-72
2023/04/21 08:50:55;;;;;;;;;;;28.90;47.50;;;;;;4999791;28;19944;-72
2023/04/21 08:53:21;;;;;;;;;;;27.10;48.50;;;;;;5001783;28;20651;-72
2023/04/21 08:55:52;;;;;;;;;;;26.70;49.00;;;;;;4996020;28;19992;-75
2023/04/21 08:58:21;;;;;;;;;;;27.20;47.60;;;;;;4998587;28;19940;-74
2023/04/21 09:00:47;;;;;;;;;;;28.30;47.20;;;;;;5001421;28;20010;-74
2023/04/21 09:03:12;;;;;;;;;;;27.80;48.00;;;;;;4994901;28;19948;-75
2023/04/21 09:05:39;;;;;;;;;;;27.90;48.10;;;;;;4993761;28;19910;-75
2023/04/21 09:08:09;;;;;;;;;;;28.50;49.20;;;;;;4984145;28;20075;-73
2023/04/21 09:10:43;;;;;;;;;;;29.70;47.30;;;;;;4997188;28;20347;-73
2023/04/21 09:13:09;;;;;;;;;;;31.40;46.20;;;;;;4999615;28;19927;-73
2023/04/21 09:15:42;;;;;;;;;;;32.40;45.10;;;;;;4997585;28;19916;-73
2023/04/21 09:18:15;;;;;;;;;;;32.80;45.10;;;;;;4981469;28;20343;-73
2023/04/21 09:20:43;;;;;;;;;;;29.70;46.80;;;;;;4994222;28;19905;-73
2023/04/21 09:23:09;;;;;;;;;;;30.20;46.90;;;;;;4990763;28;19916;-73
2023/04/21 09:25:37;;;;;;;;;;;29.10;47.20;;;;;;5001045;28;19913;-72
2023/04/21 09:28:02;;;;;;;;;;;28.90;47.10;;;;;;4982493;28;20342;-73
2023/04/21 09:30:28;;;;;;;;;;;29.40;46.80;;;;;;4997877;28;19909;-75
2023/04/21 09:32:57;;;;;;;;;;;29.10;46.60;;;;;;4995409;28;19913;-75
2023/04/21 09:35:26;;;;;;;;;;;28.40;47.00;;;;;;4992345;28;19910;-75
2023/04/21 09:37:52;;;;;;;;;;;28.40;48.40;;;;;;5002451;28;19921;-73
2023/04/21 09:40:18;;;;;;;;;;;30.30;47.20;;;;;;4997686;28;20458;-73
2023/04/21 09:42:45;;;;;;;;;;;29.40;46.70;;;;;;5002151;28;19909;-74
2023/04/21 09:45:11;;;;;;;;;;;26.70;48.40;;;;;;4980965;28;19943;-74
2023/04/21 09:47:38;;;;;;;;;;;27.90;49.40;;;;;;4981012;28;19941;-72
2023/04/21 09:50:05;;;;;;;;;;;29.10;47.90;;;;;;5000961;28;19909;-72
2023/04/21 09:52:36;;;;;;;;;;;28.90;47.70;;;;;;4997700;28;20546;-74
2023/04/21 09:55:03;;;;;;;;;;;29.00;46.80;;;;;;4999724;28;20303;-74
2023/04/21 09:57:31;;;;;;;;;;;26.70;49.30;;;;;;4998259;28;19917;-74
2023/04/21 10:00:07;;;;;;;;;;;25.50;51.10;;;;;;4998509;28;19931;-74
2023/04/21 10:02:33;;;;;;;;;;;24.30;51.40;;;;;;4992838;28;19951;-75
2023/04/21 10:04:59;;;;;;;;;;;25.20;51.20;;;;;;5001256;28;19960;-74
2023/04/21 10:07:25;;;;;;;;;;;26.00;49.80;;;;;;4998459;28;20662;-74
2023/04/21 10:09:53;;;;;;;;;;;25.10;50.10;;;;;;5001768;28;20351;-74
2023/04/21 10:12:19;;;;;;;;;;;23.40;51.90;;;;;;4997722;28;20314;-75
2023/04/21 10:14:45;;;;;;;;;;;24.60;52.70;;;;;;4993905;28;19992;-74
2023/04/21 10:17:11;;;;;;;;;;;26.60;49.10;;;;;;4994279;28;20003;-74
2023/04/21 10:19:40;;;;;;;;;;;28.70;46.80;;;;;;4997733;28;20546;-72
2023/04/21 10:22:11;;;;;;;;;;;30.50;45.70;;;;;;4997297;28;20289;-80
2023/04/21 10:24:41;;;;;;;;;;;27.70;46.40;;;;;;4984627;28;20600;-82
2023/04/21 10:27:29;;;;;;;;;;;26.40;49.20;;;;;;5003026;28;19927;-79
2023/04/21 10:29:56;;;;;;;;;;;28.20;47.20;;;;;;5003357;28;19941;-79
2023/04/21 10:32:39;;;;;;;;;;;29.50;46.10;;;;;;4981732;28;19959;-71
2023/04/21 10:35:07;;;;;;;;;;;29.90;45.70;;;;;;4997415;28;19996;-73
2023/04/21 10:37:32;;;;;;;;;;;28.80;46.10;;;;;;4979817;28;19909;-74
2023/04/21 10:39:59;;;;;;;;;;;27.90;46.60;;;;;;5004772;28;20073;-73
2023/04/21 10:42:26;;;;;;;;;;;27.90;46.70;;;;;;4994674;28;19910;-71
2023/04/21 10:45:00;;;;;;;;;;;29.50;45.50;;;;;;4979197;28;19905;-72
2023/04/21 10:47:35;;;;;;;;;;;31.50;44.80;;;;;;4996711;28;20314;-71
2023/04/21 10:50:12;;;;;;;;;;;32.50;43.90;;;;;;4998501;28;19979;-72
2023/04/21 10:52:37;;;;;;;;;;;32.20;42.20;;;;;;4998224;28;20696;-71
2023/04/21 10:55:05;;;;;;;;;;;30.50;41.90;;;;;;4982548;28;19913;-71
2023/04/21 10:57:31;;;;;;;;;;;31.00;42.80;;;;;;4978736;28;19983;-73
2023/04/21 10:59:57;;;;;;;;;;;28.10;44.00;;;;;;4982395;28;20357;-73
2023/04/21 11:02:23;;;;;;;;;;;25.10;47.30;;;;;;4995523;28;19910;-73
2023/04/21 11:04:52;;;;;;;;;;;23.50;49.20;;;;;;4997186;28;19967;-73
2023/04/21 11:07:22;;;;;;;;;;;22.90;51.40;;;;;;4979816;28;19914;-73
2023/04/21 11:09:56;;;;;;;;;;;22.50;51.60;;;;;;4982611;28;20290;-73
2023/04/21 11:12:22;;;;;;;;;;;21.90;52.00;;;;;;5000387;28;19909;-73
2023/04/21 11:14:47;;;;;;;;;;;21.30;53.30;;;;;;4999670;28;20334;-73
2023/04/21 11:17:14;;;;;;;;;;;20.70;53.90;;;;;;4996562;28;19944;-72
2023/04/21 11:19:40;;;;;;;;;;;20.00;56.00;;;;;;5000266;28;20647;-73
2023/04/21 11:22:06;;;;;;;;;;;20.10;56.90;;;;;;4982226;28;19905;-71
2023/04/21 11:24:33;;;;;;;;;;;20.20;56.10;;;;;;5002216;28;20389;-73
2023/04/21 11:27:01;;;;;;;;;;;20.50;56.10;;;;;;4999713;28;19910;-72
2023/04/21 11:29:30;;;;;;;;;;;20.60;54.90;;;;;;4999235;28;20474;-71
2023/04/21 11:31:58;;;;;;;;;;;20.70;53.50;;;;;;4999690;28;19918;-73
2023/04/21 11:34:25;;;;;;;;;;;20.70;53.10;;;;;;4999410;28;19972;-72
2023/04/21 11:36:51;;;;;;;;;;;20.80;52.30;;;;;;4983351;28;19906;-74
2023/04/21 11:39:20;;;;;;;;;;;20.60;53.90;;;;;;4979212;28;19927;-71
2023/04/21 11:41:46;;;;;;;;;;;20.40;54.10;;;;;;5000745;28;19913;-72
2023/04/21 11:44:13;;;;;;;;;;;20.30;52.80;;;;;;4985073;28;19906;-72
2023/04/21 11:46:45;;;;;;;;;;;20.20;53.60;;;;;;4995333;28;19988;-72
2023/04/21 11:49:12;;;;;;;;;;;20.50;53.40;;;;;;4976699;28;19910;-73
2023/04/21 11:51:38;;;;;;;;;;;20.60;52.90;;;;;;5000115;28;19935;-73
2023/04/21 11:54:06;;;;;;;;;;;20.30;51.70;;;;;;4982313;28;19905;-74
2023/04/21 11:56:38;;;;;;;;;;;19.90;52.40;;;;;;5003287;28;19906;-79
2023/04/21 11:59:07;;;;;;;;;;;19.80;53.50;;;;;;4995307;28;19906;-77
2023/04/21 12:01:37;;;;;;;;;;;20.10;54.40;;;;;;4985157;28;20165;-79
2023/04/21 12:04:04;;;;;;;;;;;20.20;52.60;;;;;;4988132;28;19960;-77
2023/04/21 12:06:36;;;;;;;;;;;20.40;52.60;;;;;;4980188;28;20004;-79
2023/04/21 12:09:06;;;;;;;;;;;20.60;52.20;;;;;;4982805;28;19906;-77
2023/04/21 12:11:34;;;;;;;;;;;20.70;51.70;;;;;;4984672;28;19932;-78
2023/04/21 12:14:01;;;;;;;;;;;20.80;51.70;;;;;;4982988;28;19967;-77
2023/04/21 12:16:30;;;;;;;;;;;20.50;50.20;;;;;;4994534;28;19909;-77
2023/04/21 12:18:56;;;;;;;;;;;20.40;50.70;;;;;;4980290;28;19992;-78
2023/04/21 12:21:27;;;;;;;;;;;20.50;49.90;;;;;;4997220;28;20004;-77
2023/04/21 12:23:53;;;;;;;;;;;20.50;51.40;;;;;;4996835;28;19952;-74
2023/04/21 12:26:18;;;;;;;;;;;20.60;50.90;;;;;;5003286;28;20666;-73
2023/04/21 12:28:46;;;;;;;;;;;20.60;50.40;;;;;;4999742;28;19909;-73
2023/04/21 12:31:12;;;;;;;;;;;20.50;50.40;;;;;;5004086;28;20016;-74
2023/04/21 12:33:39;;;;;;;;;;;20.40;51.50;;;;;;4998801;28;19910;-84
2023/04/21 12:38:46;;;;;;;;;;;20.10;50.50;;;;;;5575211;23;19926;-83
2023/04/21 12:41:12;;;;;;;;;;;20.00;50.40;;;;;;4989615;28;19906;-72
2023/04/21 12:43:38;;;;;;;;;;;20.10;51.40;;;;;;4997435;28;19940;-73
2023/04/21 12:46:04;;;;;;;;;;;20.10;49.70;;;;;;4994765;28;19945;-73
2023/04/21 12:48:29;;;;;;;;;;;20.20;50.00;;;;;;4995900;28;20378;-72
2023/04/21 12:50:57;;;;;;;;;;;20.20;50.60;;;;;;4996360;28;20331;-79
2023/04/21 12:53:24;;;;;;;;;;;20.10;50.80;;;;;;4984996;28;19975;-90
2023/04/21 12:55:50;;;;;;;;;;;20.40;51.00;;;;;;4990153;28;20355;-84
2023/04/21 12:58:17;;;;;;;;;;;20.60;50.00;;;;;;4989134;28;19914;-81
2023/04/21 13:00:42;;;;;;;;;;;20.30;51.20;;;;;;4986574;28;19955;-80
2023/04/21 13:03:12;;;;;;;;;;;20.40;51.10;;;;;;4974289;28;19909;-84
2023/04/21 13:05:38;;;;;;;;;;;20.30;50.70;;;;;;4983648;28;19988;-82
2023/04/21 13:08:22;;;;;;;;;;;20.40;51.20;;;;;;4975558;28;19913;-82
2023/04/21 13:10:54;;;;;;;;;;;20.70;51.40;;;;;;4973462;28;19956;-80
2023/04/21 13:13:25;;;;;;;;;;;20.80;51.20;;;;;;4972710;28;19917;-81
2023/04/21 13:15:56;;;;;;;;;;;20.50;52.30;;;;;;4976488;28;19932;-81
2023/04/21 13:18:25;;;;;;;;;;;20.20;51.30;;;;;;4969485;28;20508;-80
2023/04/21 13:20:51;;;;;;;;;;;20.10;51.70;;;;;;4970871;28;19913;-81
2023/04/21 13:23:26;;;;;;;;;;;20.30;52.10;;;;;;4995476;28;19924;-81
2023/04/21 13:25:53;;;;;;;;;;;20.10;50.70;;;;;;4973762;28;20413;-78
2023/04/21 13:28:19;;;;;;;;;;;20.10;51.80;;;;;;4966822;28;19952;-72
2023/04/21 13:30:44;;;;;;;;;;;20.20;52.60;;;;;;4983682;28;20479;-73
2023/04/21 13:33:10;;;;;;;;;;;20.50;50.70;;;;;;4982942;28;19906;-73
2023/04/21 13:35:37;;;;;;;;;;;20.50;49.20;;;;;;4995540;28;19916;-73
2023/04/21 13:38:02;;;;;;;;;;;20.40;49.80;;;;;;4980438;28;20291;-73
2023/04/21 13:40:28;;;;;;;;;;;20.20;50.00;;;;;;4988599;28;19933;-73
2023/04/21 13:42:54;;;;;;;;;;;20.00;49.90;;;;;;4988051;28;19915;-73
2023/04/21 13:45:20;;;;;;;;;;;19.70;50.70;;;;;;4982862;28;19912;-73
2023/04/21 13:47:46;;;;;;;;;;;19.60;51.10;;;;;;4988078;28;19914;-73
2023/04/21 13:50:11;;;;;;;;;;;19.50;51.10;;;;;;4967175;28;19936;-73
2023/04/21 13:52:38;;;;;;;;;;;19.60;51.40;;;;;;4982907;28;19913;-74
2023/04/21 13:55:04;;;;;;;;;;;19.70;51.30;;;;;;4966112;28;19932;-73
2023/04/21 13:57:30;;;;;;;;;;;19.70;51.30;;;;;;4987399;28;19909;-74
2023/04/21 13:59:57;;;;;;;;;;;19.70;51.40;;;;;;4964136;28;20379;-73
2023/04/21 14:02:24;;;;;;;;;;;19.50;51.70;;;;;;4983543;28;19909;-73
2023/04/21 14:04:51;;;;;;;;;;;19.60;51.80;;;;;;4984336;28;20000;-73
2023/04/21 14:07:18;;;;;;;;;;;19.50;51.80;;;;;;4983819;28;19964;-74
2023/04/21 14:09:46;;;;;;;;;;;19.60;51.90;;;;;;4983584;28;19905;-73
2023/04/21 14:12:12;;;;;;;;;;;19.50;52.50;;;;;;4963813;28;19920;-73
2023/04/21 14:14:37;;;;;;;;;;;19.50;52.90;;;;;;4979822;28;19910;-72
2023/04/21 14:17:03;;;;;;;;;;;19.60;51.30;;;;;;4981700;28;20396;-72
2023/04/21 14:19:30;;;;;;;;;;;19.60;51.40;;;;;;4987533;28;19916;-72
2023/04/21 14:21:56;;;;;;;;;;;19.60;52.30;;;;;;4992437;28;19909;-72
2023/04/21 14:24:25;;;;;;;;;;;19.60;52.40;;;;;;4990073;28;20267;-73